Time;durP1;ratioP1;P1;durP2;ratioP2;P2;SDS_P1;SDS_P2;PMS_P1;PMS_P2;Temp;Humidity;BMP_temperature;BMP_pressure;BME280_temperature;BME280_humidity;BME280_pressure;Samples;Min_cycle;Max_cycle;Signal;HPM_P1;HPM_P2
2022/07/20 00:00:08;;;;;;;;;;;;;;;30.98;39.55;98925.53;2106076;28;19931;-72
2022/07/20 00:01:11;;;;;;;;;;;;;;;30.98;39.65;98928.28;2107642;28;20115;-72
2022/07/20 00:02:11;;;;;;;;;;;;;;;30.97;39.82;98932.13;2103194;28;19927;-72
2022/07/20 00:03:13;;;;;;;;;;;;;;;30.99;39.90;98936.25;2103515;28;19934;-72
2022/07/20 00:04:13;;;;;;;;;;;;;;;31.00;39.62;98926.09;2102687;28;19928;-73
2022/07/20 00:05:15;;;;;;;;;;;;;;;30.99;39.71;98924.47;2104090;28;20311;-72
2022/07/20 00:06:16;;;;;;;;;;;;;;;31.01;39.74;98931.31;2104430;28;19928;-72
2022/07/20 00:07:18;;;;;;;;;;;;;;;30.98;39.43;98934.59;2104536;28;20536;-72
2022/07/20 00:11:19;;;;;;;;;;;;;;;30.99;39.51;98933.50;2102232;28;19928;-69
2022/07/20 00:12:18;;;;;;;;;;;;;;;30.99;39.29;98927.22;2105055;28;19928;-70
2022/07/20 00:13:18;;;;;;;;;;;;;;;30.97;39.65;98929.41;2103753;28;20003;-69
2022/07/20 00:14:20;;;;;;;;;;;;;;;30.98;39.70;98928.28;2102422;28;19934;-69
2022/07/20 00:15:21;;;;;;;;;;;;;;;30.97;39.78;98929.41;2101972;28;20347;-69
2022/07/20 00:16:26;;;;;;;;;;;;;;;30.97;39.44;98926.66;2104086;28;21220;-70
2022/07/20 00:17:27;;;;;;;;;;;;;;;30.99;39.62;98938.16;2105652;28;19943;-70
2022/07/20 00:18:28;;;;;;;;;;;;;;;30.97;39.44;98932.13;2104368;28;19923;-70
2022/07/20 00:19:30;;;;;;;;;;;;;;;30.99;39.54;98928.03;2107919;28;19935;-70
2022/07/20 00:20:31;;;;;;;;;;;;;;;30.97;39.52;98927.47;2104059;28;20392;-69
2022/07/20 00:21:32;;;;;;;;;;;;;;;30.99;39.32;98930.75;2108674;28;19940;-70
2022/07/20 00:22:33;;;;;;;;;;;;;;;30.98;39.67;98931.88;2103390;28;19935;-70
2022/07/20 00:23:34;;;;;;;;;;;;;;;30.97;39.55;98923.91;2102676;28;20392;-69
2022/07/20 00:24:35;;;;;;;;;;;;;;;30.98;39.53;98922.81;2102385;28;19998;-70
2022/07/20 00:25:37;;;;;;;;;;;;;;;31.00;39.43;98923.34;2100883;28;20258;-70
2022/07/20 00:26:38;;;;;;;;;;;;;;;30.99;39.36;98921.72;2104165;28;19932;-70
2022/07/20 00:27:39;;;;;;;;;;;;;;;31.01;39.47;98924.97;2108344;28;20452;-69
2022/07/20 00:28:40;;;;;;;;;;;;;;;30.98;39.72;98928.28;2101661;28;19923;-69
2022/07/20 00:29:42;;;;;;;;;;;;;;;30.98;39.47;98928.28;2107838;28;19923;-70
2022/07/20 00:30:42;;;;;;;;;;;;;;;30.95;39.60;98929.66;2100710;28;19935;-69
2022/07/20 00:31:45;;;;;;;;;;;;;;;30.99;39.60;98927.22;2104068;28;20328;-70
2022/07/20 00:32:46;;;;;;;;;;;;;;;30.97;39.59;98932.13;2105337;28;20297;-69
2022/07/20 00:33:48;;;;;;;;;;;;;;;30.96;39.72;98933.25;2105844;28;20164;-68
2022/07/20 00:34:48;;;;;;;;;;;;;;;30.98;39.78;98928.28;2102893;28;20124;-70
2022/07/20 00:35:50;;;;;;;;;;;;;;;30.94;39.36;98923.38;2102229;28;19931;-69
2022/07/20 00:36:51;;;;;;;;;;;;;;;30.95;39.62;98926.91;2104523;28;20060;-70
2022/07/20 00:37:52;;;;;;;;;;;;;;;30.94;39.67;98934.31;2104107;28;19935;-70
2022/07/20 00:38:54;;;;;;;;;;;;;;;30.94;39.85;98926.09;2101764;28;19924;-70
2022/07/20 00:39:54;;;;;;;;;;;;;;;30.96;39.51;98934.06;2108909;28;20244;-70
2022/07/20 00:40:56;;;;;;;;;;;;;;;30.94;39.63;98934.31;2102957;28;20461;-69
2022/07/20 00:41:56;;;;;;;;;;;;;;;30.93;39.74;98929.97;2102843;28;20402;-69
2022/07/20 00:42:58;;;;;;;;;;;;;;;30.93;39.72;98934.63;2104615;28;20040;-70
2022/07/20 00:44:00;;;;;;;;;;;;;;;30.93;39.72;98929.13;2105492;28;19924;-69
2022/07/20 00:45:03;;;;;;;;;;;;;;;30.93;39.79;98935.44;2107843;28;19932;-70
2022/07/20 00:46:03;;;;;;;;;;;;;;;30.93;39.35;98926.41;2104010;28;19927;-70
2022/07/20 00:47:06;;;;;;;;;;;;;;;30.93;39.99;98924.47;2106078;28;20307;-69
2022/07/20 00:48:07;;;;;;;;;;;;;;;30.91;39.76;98928.59;2107792;28;19931;-68
2022/07/20 00:49:10;;;;;;;;;;;;;;;30.91;39.68;98925.84;2103938;28;20158;-70
2022/07/20 00:50:10;;;;;;;;;;;;;;;30.92;39.95;98928.31;2105905;28;19927;-69
2022/07/20 00:51:12;;;;;;;;;;;;;;;30.92;39.72;98931.06;2104033;28;20018;-69
2022/07/20 00:52:12;;;;;;;;;;;;;;;30.93;40.16;98929.13;2103245;28;20030;-69
2022/07/20 00:53:14;;;;;;;;;;;;;;;30.91;39.66;98926.66;2102436;27;19967;-70
2022/07/20 00:54:15;;;;;;;;;;;;;;;30.93;39.53;98929.97;2103876;28;20354;-69
2022/07/20 00:55:17;;;;;;;;;;;;;;;30.92;39.40;98936.53;2101300;28;19982;-70
2022/07/20 00:56:18;;;;;;;;;;;;;;;30.94;39.91;98928.03;2104310;28;20003;-69
2022/07/20 00:57:20;;;;;;;;;;;;;;;30.91;39.61;98928.59;2105441;28;20483;-69
2022/07/20 00:58:20;;;;;;;;;;;;;;;30.93;40.20;98929.97;2107609;28;20443;-70
2022/07/20 00:59:22;;;;;;;;;;;;;;;30.92;39.73;98930.22;2103168;28;20059;-70
2022/07/20 01:00:23;;;;;;;;;;;;;;;30.89;40.06;98920.63;2104151;28;20148;-69
2022/07/20 01:01:24;;;;;;;;;;;;;;;30.89;39.60;98925.31;2105857;28;19924;-70
2022/07/20 01:02:26;;;;;;;;;;;;;;;30.90;39.53;98921.47;2107011;28;19924;-69
2022/07/20 01:03:28;;;;;;;;;;;;;;;30.90;39.93;98929.69;2100812;28;20404;-70
2022/07/20 01:04:29;;;;;;;;;;;;;;;30.91;39.70;98926.66;2102566;28;20263;-69
2022/07/20 01:05:30;;;;;;;;;;;;;;;30.90;40.17;98925.03;2105448;28;20122;-69
2022/07/20 01:06:31;;;;;;;;;;;;;;;30.89;39.96;98926.13;2106261;28;19931;-70
2022/07/20 01:07:33;;;;;;;;;;;;;;;30.89;39.79;98926.13;2104554;28;20393;-69
2022/07/20 01:08:33;;;;;;;;;;;;;;;30.90;39.75;98918.75;2101984;28;19928;-69
2022/07/20 01:09:35;;;;;;;;;;;;;;;30.90;40.02;98924.22;2105574;28;23005;-69
2022/07/20 01:10:36;;;;;;;;;;;;;;;30.90;40.06;98929.69;2101465;28;20300;-70
2022/07/20 01:11:37;;;;;;;;;;;;;;;30.85;39.97;98916.81;2106041;28;19924;-70
2022/07/20 01:12:38;;;;;;;;;;;;;;;30.89;40.28;98928.84;2104613;28;20383;-70
2022/07/20 01:13:40;;;;;;;;;;;;;;;30.87;40.10;98919.28;2100324;28;20014;-70
2022/07/20 01:14:40;;;;;;;;;;;;;;;30.89;39.93;98925.31;2100892;28;19928;-70
2022/07/20 01:15:42;;;;;;;;;;;;;;;30.87;40.03;98925.59;2104728;28;19938;-70
2022/07/20 01:16:42;;;;;;;;;;;;;;;30.87;40.07;98919.28;2106156;28;20098;-70
2022/07/20 01:17:45;;;;;;;;;;;;;;;30.88;40.20;98927.22;2103632;28;19938;-69
2022/07/20 01:18:46;;;;;;;;;;;;;;;30.87;40.12;98922.84;2105781;28;20645;-69
2022/07/20 01:19:48;;;;;;;;;;;;;;;30.89;40.18;98923.38;2107983;28;19931;-70
2022/07/20 01:20:49;;;;;;;;;;;;;;;30.88;40.37;98924.47;2106345;28;19932;-70
2022/07/20 01:21:52;;;;;;;;;;;;;;;30.88;40.16;98927.22;2108039;28;20027;-69
2022/07/20 01:22:52;;;;;;;;;;;;;;;30.88;40.20;98927.22;2087516;28;20206;-69
2022/07/20 01:23:54;;;;;;;;;;;;;;;30.90;39.88;98926.97;2101695;28;19928;-70
2022/07/20 01:24:55;;;;;;;;;;;;;;;30.89;39.92;98923.38;2100120;28;20548;-69
2022/07/20 01:25:57;;;;;;;;;;;;;;;30.89;40.31;98923.38;2104401;28;19946;-70
2022/07/20 01:26:57;;;;;;;;;;;;;;;30.91;40.17;98931.34;2103739;28;19928;-69
2022/07/20 01:27:59;;;;;;;;;;;;;;;30.90;39.86;98924.22;2105162;28;19972;-70
2022/07/20 01:28:59;;;;;;;;;;;;;;;30.89;39.99;98922.56;2094171;28;19928;-69
2022/07/20 01:30:01;;;;;;;;;;;;;;;30.88;39.93;98923.66;2105140;28;19934;-70
2022/07/20 01:31:02;;;;;;;;;;;;;;;30.88;40.39;98919.00;2107250;28;19928;-70
2022/07/20 01:32:03;;;;;;;;;;;;;;;30.91;40.35;98925.84;2107492;28;19979;-69
2022/07/20 01:33:04;;;;;;;;;;;;;;;30.90;39.94;98925.03;2106734;28;19927;-69
2022/07/20 01:34:06;;;;;;;;;;;;;;;30.90;39.95;98930.50;2106033;28;19931;-69
2022/07/20 01:35:07;;;;;;;;;;;;;;;30.87;40.21;98919.28;2105247;28;19932;-69
2022/07/20 01:36:09;;;;;;;;;;;;;;;30.90;40.44;98919.56;2098596;28;20030;-69
2022/07/20 01:37:11;;;;;;;;;;;;;;;30.90;40.41;98919.56;2103145;28;20134;-70
2022/07/20 01:38:12;;;;;;;;;;;;;;;30.90;40.41;98914.09;2108823;28;19924;-70
2022/07/20 01:39:13;;;;;;;;;;;;;;;30.94;40.21;98919.81;2100943;28;19935;-70
2022/07/20 01:40:14;;;;;;;;;;;;;;;30.90;40.17;98919.56;2108705;28;19989;-69
2022/07/20 01:41:15;;;;;;;;;;;;;;;30.90;40.34;98919.56;2104958;28;20012;-70
2022/07/20 01:42:16;;;;;;;;;;;;;;;30.89;40.17;98917.91;2108318;28;19974;-70
2022/07/20 01:43:17;;;;;;;;;;;;;;;30.92;39.79;98917.38;2101819;28;20378;-70
2022/07/20 01:44:21;;;;;;;;;;;;;;;30.90;40.01;98918.75;2102690;28;19928;-70
2022/07/20 01:45:22;;;;;;;;;;;;;;;30.89;40.27;98917.09;2102728;28;20469;-70
2022/07/20 01:46:23;;;;;;;;;;;;;;;30.86;40.12;98912.16;2105128;28;19928;-70
2022/07/20 01:47:24;;;;;;;;;;;;;;;30.86;40.38;98918.47;2103179;28;19927;-70
2022/07/20 01:48:25;;;;;;;;;;;;;;;30.86;40.05;98923.94;2111071;28;19927;-69
2022/07/20 01:49:27;;;;;;;;;;;;;;;30.85;40.43;98914.09;2106970;28;22219;-70
2022/07/20 01:50:29;;;;;;;;;;;;;;;30.86;40.17;98918.47;2110417;28;19943;-70
2022/07/20 01:51:29;;;;;;;;;;;;;;;30.85;40.41;98916.81;2105494;28;19935;-69
2022/07/20 01:52:32;;;;;;;;;;;;;;;30.84;40.29;98912.47;2109255;28;20051;-70
2022/07/20 01:53:33;;;;;;;;;;;;;;;30.83;40.28;98919.03;2101800;28;19932;-69
2022/07/20 01:54:34;;;;;;;;;;;;;;;30.84;40.06;98919.84;2108312;28;19928;-70
2022/07/20 01:55:35;;;;;;;;;;;;;;;30.85;40.53;98916.00;2108247;28;20328;-70
2022/07/20 01:56:37;;;;;;;;;;;;;;;30.84;40.39;98920.69;2108019;28;20015;-70
2022/07/20 01:57:37;;;;;;;;;;;;;;;30.83;40.66;98910.81;2106307;28;19928;-70
2022/07/20 01:58:39;;;;;;;;;;;;;;;30.82;40.11;98906.44;2106877;28;20407;-70
2022/07/20 01:59:40;;;;;;;;;;;;;;;30.84;40.46;98908.88;2104858;28;19924;-69
2022/07/20 02:00:41;;;;;;;;;;;;;;;30.84;40.38;98915.19;2106667;28;20345;-71
2022/07/20 02:01:42;;;;;;;;;;;;;;;30.82;40.69;98911.91;2102054;28;19927;-68
2022/07/20 02:02:43;;;;;;;;;;;;;;;30.82;40.44;98911.91;2106329;28;20407;-70
2022/07/20 02:03:44;;;;;;;;;;;;;;;30.82;40.37;98916.56;2107369;28;19928;-70
2022/07/20 02:04:45;;;;;;;;;;;;;;;30.81;40.45;98909.44;2100831;28;20026;-70
2022/07/20 02:05:46;;;;;;;;;;;;;;;30.81;40.57;98909.44;2107788;28;19924;-69
2022/07/20 02:06:48;;;;;;;;;;;;;;;30.82;40.41;98913.84;2107167;28;19927;-70
2022/07/20 02:07:50;;;;;;;;;;;;;;;30.82;40.49;98917.38;2109226;28;19935;-69
2022/07/20 02:08:51;;;;;;;;;;;;;;;30.81;40.31;98910.25;2106920;28;19928;-69
2022/07/20 02:09:52;;;;;;;;;;;;;;;30.83;40.35;98918.19;2106501;28;20404;-69
2022/07/20 02:10:53;;;;;;;;;;;;;;;30.81;40.40;98913.00;2106576;28;19934;-69
2022/07/20 02:11:54;;;;;;;;;;;;;;;30.81;40.11;98914.91;2108749;28;20207;-69
2022/07/20 02:12:56;;;;;;;;;;;;;;;30.82;40.25;98911.09;2106357;28;23505;-70
2022/07/20 02:13:56;;;;;;;;;;;;;;;30.81;40.43;98903.97;2108843;28;19928;-69
2022/07/20 02:14:58;;;;;;;;;;;;;;;30.80;40.19;98905.88;2105056;28;20399;-70
2022/07/20 02:17:24;;;;;;;;;;;;;;;30.83;40.23;98904.50;2090861;28;19928;-69
2022/07/20 02:18:24;;;;;;;;;;;;;;;30.80;39.97;98905.88;2108426;28;19935;-69
2022/07/20 02:19:26;;;;;;;;;;;;;;;30.82;40.53;98911.91;2104892;28;19931;-69
2022/07/20 02:20:26;;;;;;;;;;;;;;;30.79;40.67;98906.97;2101212;28;20059;-70
2022/07/20 02:21:29;;;;;;;;;;;;;;;30.79;40.53;98909.69;2106485;28;20016;-70
2022/07/20 02:22:29;;;;;;;;;;;;;;;30.80;40.39;98905.88;2105908;28;20396;-69
2022/07/20 02:23:32;;;;;;;;;;;;;;;30.80;40.22;98905.88;2106318;28;19971;-69
2022/07/20 02:24:33;;;;;;;;;;;;;;;30.77;40.28;98903.69;2104781;28;19928;-69
2022/07/20 02:25:36;;;;;;;;;;;;;;;30.78;40.33;98904.50;2103511;28;19975;-70
2022/07/20 02:26:36;;;;;;;;;;;;;;;30.77;40.61;98903.69;2107855;27;20027;-70
2022/07/20 02:27:38;;;;;;;;;;;;;;;30.77;40.41;98905.59;2105833;28;19930;-70
2022/07/20 02:28:39;;;;;;;;;;;;;;;30.78;40.01;98909.97;2103902;28;19928;-70
2022/07/20 02:29:40;;;;;;;;;;;;;;;30.77;40.19;98903.69;2102982;28;20293;-69
2022/07/20 02:30:41;;;;;;;;;;;;;;;30.80;40.56;98903.16;2104611;28;19931;-70
2022/07/20 02:31:42;;;;;;;;;;;;;;;30.78;40.14;98905.31;2105736;28;20021;-70
2022/07/20 02:32:43;;;;;;;;;;;;;;;30.79;40.02;98912.44;2101679;28;19927;-70
2022/07/20 02:33:44;;;;;;;;;;;;;;;30.81;40.61;98909.44;2093954;28;20013;-71
2022/07/20 02:34:45;;;;;;;;;;;;;;;30.78;40.14;98902.56;2098585;28;19935;-70
2022/07/20 02:35:46;;;;;;;;;;;;;;;30.80;40.33;98908.63;2105057;28;19928;-70
2022/07/20 02:36:47;;;;;;;;;;;;;;;30.81;40.29;98904.78;2104300;28;20157;-70
2022/07/20 02:37:48;;;;;;;;;;;;;;;30.82;40.41;98905.63;2104749;28;20034;-69
2022/07/20 02:38:50;;;;;;;;;;;;;;;30.82;40.52;98908.34;2102244;28;19935;-70
2022/07/20 02:39:52;;;;;;;;;;;;;;;30.82;40.48;98905.63;2102789;28;20305;-69
2022/07/20 02:40:53;;;;;;;;;;;;;;;30.81;40.38;98904.78;2097945;28;19951;-70
2022/07/20 02:41:54;;;;;;;;;;;;;;;30.84;40.44;98898.78;2103164;28;20757;-69
2022/07/20 02:42:55;;;;;;;;;;;;;;;30.84;40.62;98903.41;2102292;28;20449;-70
2022/07/20 02:43:57;;;;;;;;;;;;;;;30.85;40.13;98907.78;2103734;28;19936;-70
2022/07/20 02:44:57;;;;;;;;;;;;;;;30.85;40.06;98905.06;2102671;28;20017;-70
2022/07/20 02:45:59;;;;;;;;;;;;;;;30.84;40.41;98903.41;2103694;28;20389;-70
2022/07/20 02:46:59;;;;;;;;;;;;;;;30.84;40.30;98904.25;2106009;28;20130;-70
2022/07/20 02:48:03;;;;;;;;;;;;;;;30.84;40.51;98897.94;2104707;28;20201;-70
2022/07/20 02:49:04;;;;;;;;;;;;;;;30.83;40.33;98891.63;2104400;28;20278;-70
2022/07/20 02:50:06;;;;;;;;;;;;;;;30.86;40.32;98898.47;2108708;28;19934;-70
2022/07/20 02:51:06;;;;;;;;;;;;;;;30.84;40.31;98904.25;2102922;28;19932;-69
2022/07/20 02:52:08;;;;;;;;;;;;;;;30.85;40.43;98905.88;2108079;28;20298;-70
2022/07/20 02:53:09;;;;;;;;;;;;;;;30.85;40.34;98908.63;2104020;28;20407;-70
2022/07/20 02:54:12;;;;;;;;;;;;;;;30.83;40.65;98905.31;2108703;28;20026;-70
2022/07/20 02:55:13;;;;;;;;;;;;;;;30.82;40.50;98900.97;2098113;28;21314;-69
2022/07/20 02:56:14;;;;;;;;;;;;;;;30.84;40.61;98897.94;2106771;28;19935;-70
2022/07/20 02:57:15;;;;;;;;;;;;;;;30.84;40.37;98906.13;2103599;28;19966;-70
2022/07/20 02:58:16;;;;;;;;;;;;;;;30.84;40.72;98898.78;2105296;28;20491;-70
2022/07/20 02:59:17;;;;;;;;;;;;;;;30.83;40.63;98904.50;2105029;28;20006;-70
2022/07/20 03:00:18;;;;;;;;;;;;;;;30.83;40.66;98899.84;2104715;28;19934;-69
2022/07/20 03:01:19;;;;;;;;;;;;;;;30.82;40.65;98906.44;2103609;28;20448;-70
2022/07/20 03:02:20;;;;;;;;;;;;;;;30.83;40.46;98899.84;2107079;28;19931;-70
2022/07/20 03:03:21;;;;;;;;;;;;;;;30.82;40.70;98895.47;2101979;28;19927;-70
2022/07/20 03:04:23;;;;;;;;;;;;;;;30.82;40.59;98902.88;2101066;28;20347;-69
2022/07/20 03:05:23;;;;;;;;;;;;;;;30.81;40.29;98899.31;2107522;28;19934;-70
2022/07/20 03:06:25;;;;;;;;;;;;;;;30.82;40.69;98900.97;2104782;28;20403;-70
2022/07/20 03:07:25;;;;;;;;;;;;;;;30.84;40.67;98900.66;2106306;28;19927;-69
2022/07/20 03:08:27;;;;;;;;;;;;;;;30.83;40.76;98901.78;2108716;28;19932;-69
2022/07/20 03:09:29;;;;;;;;;;;;;;;30.82;40.73;98902.88;2104655;28;19935;-69
2022/07/20 03:10:31;;;;;;;;;;;;;;;30.83;40.63;98901.78;2108469;28;19932;-69
2022/07/20 03:11:31;;;;;;;;;;;;;;;30.83;40.55;98899.03;2103513;28;19924;-70
2022/07/20 03:12:33;;;;;;;;;;;;;;;30.81;40.57;98904.78;2104011;28;19973;-70
2022/07/20 03:13:33;;;;;;;;;;;;;;;30.79;40.42;98893.28;2102133;28;19975;-69
2022/07/20 03:14:35;;;;;;;;;;;;;;;30.77;40.75;98895.47;2107108;28;19927;-70
2022/07/20 03:15:36;;;;;;;;;;;;;;;30.79;40.65;98901.47;2101671;28;19923;-70
2022/07/20 03:16:37;;;;;;;;;;;;;;;30.80;40.82;98900.41;2107784;28;20002;-69
2022/07/20 03:17:42;;;;;;;;;;;;;;;30.79;40.57;98901.47;2090635;28;20353;-69
2022/07/20 03:18:44;;;;;;;;;;;;;;;30.79;40.57;98897.94;2099637;28;19928;-70
2022/07/20 03:19:45;;;;;;;;;;;;;;;30.79;40.53;98897.94;2101710;28;19951;-70
2022/07/20 03:20:46;;;;;;;;;;;;;;;30.78;40.42;98897.09;2109547;28;20006;-70
2022/07/20 03:21:47;;;;;;;;;;;;;;;30.81;40.74;98893.81;2098374;28;19932;-70
2022/07/20 03:22:49;;;;;;;;;;;;;;;30.77;40.54;98898.19;2105368;28;19932;-69
2022/07/20 03:23:50;;;;;;;;;;;;;;;30.79;40.74;98901.47;2102439;28;19927;-69
2022/07/20 03:24:52;;;;;;;;;;;;;;;30.81;40.63;98904.78;2107269;28;19935;-69
2022/07/20 03:25:54;;;;;;;;;;;;;;;30.77;40.47;98903.69;2106428;28;19924;-70
2022/07/20 03:26:54;;;;;;;;;;;;;;;30.77;40.58;98902.84;2107604;28;20925;-69
2022/07/20 03:27:56;;;;;;;;;;;;;;;30.78;40.76;98905.31;2101260;28;19997;-70
2022/07/20 03:28:57;;;;;;;;;;;;;;;30.74;40.62;98893.28;2102302;28;19930;-69
2022/07/20 03:29:59;;;;;;;;;;;;;;;30.76;40.73;98901.19;2109133;28;19928;-70
2022/07/20 03:31:00;;;;;;;;;;;;;;;30.74;40.70;98904.22;2104383;28;19924;-70
2022/07/20 03:32:01;;;;;;;;;;;;;;;30.73;40.53;98895.19;2108167;28;19927;-70
2022/07/20 03:33:02;;;;;;;;;;;;;;;30.76;40.38;98904.78;2105274;28;20114;-70
2022/07/20 03:34:03;;;;;;;;;;;;;;;30.77;40.38;98898.19;2104260;28;19939;-69
2022/07/20 03:35:05;;;;;;;;;;;;;;;30.76;40.35;98895.72;2104662;28;19976;-69
2022/07/20 03:36:05;;;;;;;;;;;;;;;30.73;40.90;98895.19;2102782;28;19932;-69
2022/07/20 03:37:07;;;;;;;;;;;;;;;30.73;40.81;98897.94;2102019;28;20348;-68
2022/07/20 03:38:08;;;;;;;;;;;;;;;30.76;40.90;98901.19;2101252;28;20350;-69
2022/07/20 03:39:09;;;;;;;;;;;;;;;30.76;40.58;98898.47;2103797;28;20304;-69
2022/07/20 03:40:12;;;;;;;;;;;;;;;30.77;40.52;98897.38;2104067;28;19924;-69
2022/07/20 03:41:13;;;;;;;;;;;;;;;30.76;41.00;98899.31;2106129;28;19939;-69
2022/07/20 03:42:14;;;;;;;;;;;;;;;30.76;40.66;98901.19;2107761;28;19927;-70
2022/07/20 03:43:15;;;;;;;;;;;;;;;30.76;40.54;98899.31;2105363;28;20537;-69
2022/07/20 03:44:16;;;;;;;;;;;;;;;30.77;40.45;98902.84;2105596;28;19935;-69
2022/07/20 03:45:17;;;;;;;;;;;;;;;30.78;40.36;98896.28;2101451;28;20572;-69
2022/07/20 03:46:18;;;;;;;;;;;;;;;30.78;40.63;98901.75;2102907;28;20015;-69
2022/07/20 03:47:19;;;;;;;;;;;;;;;30.77;40.72;98900.13;2102975;28;20145;-69
2022/07/20 03:48:20;;;;;;;;;;;;;;;30.76;40.88;98892.97;2105035;28;20635;-69
2022/07/20 03:49:22;;;;;;;;;;;;;;;30.76;40.64;98910.25;2103083;28;19931;-69
2022/07/20 03:50:22;;;;;;;;;;;;;;;30.76;40.58;98902.03;2105313;28;19928;-69
2022/07/20 03:51:24;;;;;;;;;;;;;;;30.76;40.70;98907.53;2103405;28;20046;-70
2022/07/20 03:52:24;;;;;;;;;;;;;;;30.76;40.73;98902.03;2104492;28;19927;-69
2022/07/20 03:53:26;;;;;;;;;;;;;;;30.73;40.49;98900.69;2099849;28;19932;-69
2022/07/20 03:54:26;;;;;;;;;;;;;;;30.75;40.93;98905.84;2105757;28;20174;-69
2022/07/20 03:55:29;;;;;;;;;;;;;;;30.75;40.88;98905.03;2103043;28;20177;-69
2022/07/20 03:56:30;;;;;;;;;;;;;;;30.73;40.74;98903.41;2107602;28;19951;-69
2022/07/20 03:57:31;;;;;;;;;;;;;;;30.72;40.96;98906.41;2104575;28;20377;-69
2022/07/20 03:58:32;;;;;;;;;;;;;;;30.72;40.45;98906.41;2105823;28;19931;-69
2022/07/20 03:59:34;;;;;;;;;;;;;;;30.72;41.02;98909.16;2103341;28;20278;-69
2022/07/20 04:00:35;;;;;;;;;;;;;;;30.71;40.58;98905.59;2104892;28;19961;-69
2022/07/20 04:01:36;;;;;;;;;;;;;;;30.73;40.88;98908.09;2103034;28;19932;-70
2022/07/20 04:02:38;;;;;;;;;;;;;;;30.71;40.78;98911.09;2104591;28;20227;-68
2022/07/20 04:03:38;;;;;;;;;;;;;;;30.72;40.99;98909.16;2103139;28;20532;-69
2022/07/20 04:04:40;;;;;;;;;;;;;;;30.74;40.87;98909.72;2104885;28;19931;-69
2022/07/20 04:05:40;;;;;;;;;;;;;;;30.71;40.57;98908.34;2103928;28;20282;-69
2022/07/20 04:06:42;;;;;;;;;;;;;;;30.71;40.85;98908.34;2108472;28;19930;-69
2022/07/20 04:07:44;;;;;;;;;;;;;;;30.72;40.54;98915.44;2102050;28;19932;-69
2022/07/20 04:08:44;;;;;;;;;;;;;;;30.75;40.94;98914.06;2106275;28;19924;-69
2022/07/20 04:09:46;;;;;;;;;;;;;;;30.76;40.99;98914.88;2102578;28;20155;-69
2022/07/20 04:10:48;;;;;;;;;;;;;;;30.74;40.41;98917.91;2106827;28;19923;-69
2022/07/20 04:11:50;;;;;;;;;;;;;;;30.75;40.55;98916.81;2106138;28;19928;-70
2022/07/20 04:12:50;;;;;;;;;;;;;;;30.71;40.94;98918.47;2105800;28;19928;-69
2022/07/20 04:13:52;;;;;;;;;;;;;;;30.73;40.63;98925.31;2099290;28;20544;-69
2022/07/20 04:14:53;;;;;;;;;;;;;;;30.71;40.96;98922.03;2104067;28;19931;-70
2022/07/20 04:15:54;;;;;;;;;;;;;;;30.73;41.04;98919.84;2100824;28;19931;-69
2022/07/20 04:16:55;;;;;;;;;;;;;;;30.75;40.72;98926.94;2107441;28;19935;-69
2022/07/20 04:17:57;;;;;;;;;;;;;;;30.75;40.44;98925.03;2104278;28;19946;-69
2022/07/20 04:18:57;;;;;;;;;;;;;;;30.74;40.59;98934.34;2107608;28;19967;-70
2022/07/20 04:19:59;;;;;;;;;;;;;;;30.75;40.77;98925.03;2102001;28;19963;-69
2022/07/20 04:21:00;;;;;;;;;;;;;;;30.73;40.78;98927.25;2085411;28;20009;-69
2022/07/20 04:22:01;;;;;;;;;;;;;;;30.74;40.74;98928.88;2103548;28;20022;-69
2022/07/20 04:23:02;;;;;;;;;;;;;;;30.72;40.96;98926.41;2099778;28;19944;-68
2022/07/20 04:24:03;;;;;;;;;;;;;;;30.72;40.96;98937.34;2106214;28;20357;-69
2022/07/20 04:25:05;;;;;;;;;;;;;;;30.73;40.60;98930.81;2104160;28;19928;-69
2022/07/20 04:26:07;;;;;;;;;;;;;;;30.71;40.83;98932.16;2108486;28;19939;-68
2022/07/20 04:27:09;;;;;;;;;;;;;;;30.70;40.92;98933.25;2094736;28;19931;-69
2022/07/20 04:28:11;;;;;;;;;;;;;;;30.70;40.66;98931.34;2109212;28;20296;-69
2022/07/20 04:29:11;;;;;;;;;;;;;;;30.72;40.86;98933.78;2099047;28;19955;-69
2022/07/20 04:30:13;;;;;;;;;;;;;;;30.73;40.64;98929.97;2104567;28;20443;-69
2022/07/20 04:31:14;;;;;;;;;;;;;;;30.73;40.91;98935.47;2102020;28;19928;-70
2022/07/20 04:32:16;;;;;;;;;;;;;;;30.72;40.96;98933.78;2104787;28;19928;-69
2022/07/20 04:33:18;;;;;;;;;;;;;;;30.71;40.95;98937.66;2106458;28;20430;-69
2022/07/20 04:34:20;;;;;;;;;;;;;;;30.69;40.56;98934.34;2109088;28;19955;-68
2022/07/20 04:35:21;;;;;;;;;;;;;;;30.69;40.55;98942.56;2105499;28;19935;-69
2022/07/20 04:36:23;;;;;;;;;;;;;;;30.70;40.67;98938.72;2105033;28;21332;-69
2022/07/20 04:37:24;;;;;;;;;;;;;;;30.67;41.19;98937.38;2101158;28;19927;-69
2022/07/20 04:38:25;;;;;;;;;;;;;;;30.68;40.83;98949.97;2109133;28;19927;-70
2022/07/20 04:39:27;;;;;;;;;;;;;;;30.68;40.73;98943.69;2105114;28;20062;-68
2022/07/20 04:40:28;;;;;;;;;;;;;;;30.67;40.68;98947.50;2106903;28;20353;-69
2022/07/20 04:41:31;;;;;;;;;;;;;;;30.68;40.62;98944.50;2104542;28;19976;-69
2022/07/20 04:42:31;;;;;;;;;;;;;;;30.69;40.74;98945.31;2103833;28;19946;-69
2022/07/20 04:43:33;;;;;;;;;;;;;;;30.71;40.80;98945.84;2104493;28;20561;-69
2022/07/20 04:44:34;;;;;;;;;;;;;;;30.68;40.70;98951.88;2108380;28;20328;-68
2022/07/20 04:45:35;;;;;;;;;;;;;;;30.68;40.85;98949.16;2100706;28;20502;-71
2022/07/20 04:46:37;;;;;;;;;;;;;;;30.67;41.02;98947.50;2106536;28;19934;-69
2022/07/20 04:47:38;;;;;;;;;;;;;;;30.67;41.04;98948.34;2102922;28;19938;-69
2022/07/20 04:48:39;;;;;;;;;;;;;;;30.66;40.57;98949.41;2105276;28;19927;-69
2022/07/20 04:49:40;;;;;;;;;;;;;;;30.65;40.69;98949.72;2104784;28;20005;-69
2022/07/20 04:50:41;;;;;;;;;;;;;;;30.65;40.65;98952.44;2107385;28;20380;-69
2022/07/20 04:51:43;;;;;;;;;;;;;;;30.66;40.82;98959.56;2098803;28;19935;-69
2022/07/20 04:52:43;;;;;;;;;;;;;;;30.65;40.85;98950.53;2107523;28;20173;-69
2022/07/20 04:53:45;;;;;;;;;;;;;;;30.66;40.78;98954.06;2106571;28;19978;-69
2022/07/20 04:54:46;;;;;;;;;;;;;;;30.66;40.74;98956.81;2109310;28;19962;-69
2022/07/20 04:55:47;;;;;;;;;;;;;;;30.66;41.05;98954.88;2104761;28;19924;-69
2022/07/20 04:56:50;;;;;;;;;;;;;;;30.67;40.59;98952.97;2104993;28;20033;-69
2022/07/20 04:57:50;;;;;;;;;;;;;;;30.66;41.04;98943.13;2103981;28;19928;-69
2022/07/20 04:58:54;;;;;;;;;;;;;;;30.68;40.71;98949.16;2104928;28;19934;-69
2022/07/20 04:59:55;;;;;;;;;;;;;;;30.65;41.06;98956.00;2103307;28;19979;-69
2022/07/20 05:00:57;;;;;;;;;;;;;;;30.68;40.84;98951.88;2101474;28;19923;-69
2022/07/20 05:01:57;;;;;;;;;;;;;;;30.67;40.69;98950.22;2099855;28;20042;-69
2022/07/20 05:02:59;;;;;;;;;;;;;;;30.67;41.00;98950.22;2106049;28;20329;-69
2022/07/20 05:03:59;;;;;;;;;;;;;;;30.68;40.96;98949.16;2099995;28;19935;-69
2022/07/20 05:05:01;;;;;;;;;;;;;;;30.61;38.84;98948.59;2101242;28;20564;-69
2022/07/20 05:06:02;;;;;;;;;;;;;;;30.43;36.73;98961.75;2104734;28;19927;-70
2022/07/20 05:07:04;;;;;;;;;;;;;;;30.30;36.13;98959.56;2104383;28;20580;-70
2022/07/20 05:08:04;;;;;;;;;;;;;;;30.21;35.87;98953.78;2104015;28;20332;-70
2022/07/20 05:09:07;;;;;;;;;;;;;;;30.14;35.63;98949.66;2103127;28;19932;-69
2022/07/20 05:10:08;;;;;;;;;;;;;;;30.11;36.04;98961.97;2099292;28;20331;-69
2022/07/20 05:11:10;;;;;;;;;;;;;;;30.09;36.27;98947.78;2101820;28;19932;-69
2022/07/20 05:12:13;;;;;;;;;;;;;;;30.09;37.01;98953.25;2102155;28;20535;-69
2022/07/20 05:13:13;;;;;;;;;;;;;;;30.08;37.11;98962.53;2102846;28;20307;-69
2022/07/20 05:14:15;;;;;;;;;;;;;;;30.09;37.30;98960.59;2102255;28;19932;-69
2022/07/20 05:15:16;;;;;;;;;;;;;;;30.09;37.58;98955.97;2101375;28;19943;-69
2022/07/20 05:16:17;;;;;;;;;;;;;;;30.07;38.00;98963.63;2102208;28;20437;-70
2022/07/20 05:17:18;;;;;;;;;;;;;;;30.04;38.03;98954.03;2102327;28;20019;-69
2022/07/20 05:18:19;;;;;;;;;;;;;;;30.05;38.27;98957.59;2105372;28;19984;-70
2022/07/20 05:19:21;;;;;;;;;;;;;;;30.04;38.73;98959.50;2107025;28;20068;-69
2022/07/20 05:20:22;;;;;;;;;;;;;;;30.05;38.78;98963.88;2101397;28;19924;-69
2022/07/20 05:21:23;;;;;;;;;;;;;;;30.03;39.01;98960.63;2098140;28;19928;-69
2022/07/20 05:22:24;;;;;;;;;;;;;;;30.04;39.16;98956.78;2100195;28;20017;-70
2022/07/20 05:23:33;;;;;;;;;;;;;;;30.03;39.40;98965.25;2095985;28;20020;-69